»·PEaware :: N597DW KSNA-KSBP

N597DW :: KSNA-KSBP

FLIGHT INFORMATION

Flight Status: Arrived
Operator: Privately registered:
United States
More flights under this callsign
Pilot: James N. (18824)
Aircraft: Unknown
(DA62)
More flights by this aircraft type
Origin: KSNA John Wayne-Orange Co
United States
Destination: KSBP San Luis Co Regl
United States
More flights between these airports :: More routes between these airports
Route: POXKU SEYKO L70 LHS GMN FLW
File this flight plan on PilotEdge
Remarks: Sample flight plan
Altitude:
(Current/Filed)
8,500ft
Speed:
(Current/Filed)
168kts
Departed: 10-May-18 08:03 PM
Arrived: 10-May-18 09:20 PM
Distance/Time
Traveled:
166nm/1:17
Distance/Time
To Go:
Arrived

Flight Plot

Page will automatically refresh every two minutes.

Flight plan parsing failed; only flown route is shown


Map Options




Map Legend


Flown Route
Filed Route
Departure Airport
Arrival Airport
Navaid (VOR, NDB)
Fix

Horizontal Profiles

Position Reports

Time Latitude Longitude Heading Altitude Ground
Speed
10-May-18 19:39 33.667584 -117.870324 221 60ft 0kts
10-May-18 19:40 33.667584 -117.870324 221 60ft 0kts
10-May-18 19:41 33.667584 -117.870324 221 60ft 0kts
10-May-18 19:42 33.667584 -117.870324 221 60ft 0kts
10-May-18 19:43 33.667584 -117.870324 221 60ft 0kts
10-May-18 19:44 33.667584 -117.870324 221 60ft 0kts
10-May-18 19:45 33.667584 -117.870324 221 60ft 0kts
10-May-18 19:46 33.667584 -117.870324 221 60ft 0kts
10-May-18 19:47 33.667584 -117.870324 221 60ft 0kts
10-May-18 19:48 33.667584 -117.870324 221 60ft 0kts
10-May-18 19:49 33.667584 -117.870324 221 60ft 0kts
10-May-18 19:50 33.667584 -117.870324 221 60ft 0kts
10-May-18 19:51 33.667584 -117.870324 221 60ft 0kts
10-May-18 19:52 33.667584 -117.870324 221 60ft 0kts
10-May-18 19:53 33.667584 -117.870324 221 60ft 0kts
10-May-18 19:54 33.667584 -117.870324 221 60ft 0kts
10-May-18 19:55 33.667584 -117.870324 221 60ft 0kts
10-May-18 19:56 33.667584 -117.870324 221 60ft 0kts
10-May-18 19:57 33.667666 -117.870586 316 60ft 6kts
10-May-18 19:58 33.670128 -117.869913 39 60ft 13kts
10-May-18 19:59 33.674213 -117.867014 25 60ft 12kts
10-May-18 20:00 33.678786 -117.864105 27 60ft 24kts
10-May-18 20:01 33.679971 -117.863634 290 60ft 0kts
10-May-18 20:02 33.679973 -117.863638 290 60ft 0kts
10-May-18 20:03 33.678772 -117.864964 207 60ft 52kts
10-May-18 20:04 33.664915 -117.885651 290 1126ft 98kts
10-May-18 20:05 33.690622 -117.898724 340 2383ft 124kts
10-May-18 20:06 33.728702 -117.888223 51 2614ft 168kts
10-May-18 20:07 33.757837 -117.844358 51 3171ft 165kts
10-May-18 20:08 33.787700 -117.815287 22 4492ft 148kts
10-May-18 20:09 33.829486 -117.794201 19 4493ft 170kts
10-May-18 20:10 33.874607 -117.789509 341 4488ft 168kts
10-May-18 20:11 33.919878 -117.804350 341 4483ft 169kts
10-May-18 20:12 33.965143 -117.819327 341 4488ft 169kts
10-May-18 20:13 34.010243 -117.834284 340 4496ft 168kts
10-May-18 20:14 34.054517 -117.849569 322 4811ft 142kts
10-May-18 20:15 34.076130 -117.871206 313 6333ft 95kts
10-May-18 20:16 34.096214 -117.892007 313 7400ft 96kts
10-May-18 20:17 34.115822 -117.912285 313 8417ft 97kts
10-May-18 20:18 34.142597 -117.940073 315 8505ft 150kts
10-May-18 20:19 34.175751 -117.974424 315 8495ft 161kts
10-May-18 20:20 34.209751 -118.009697 315 8490ft 163kts
10-May-18 20:21 34.244248 -118.045504 315 8486ft 163kts
10-May-18 20:22 34.278671 -118.081268 315 8487ft 163kts
10-May-18 20:23 34.312955 -118.116939 315 8496ft 162kts
10-May-18 20:24 34.347100 -118.152106 316 8512ft 160kts
10-May-18 20:25 34.380692 -118.187047 316 8533ft 158kts
10-May-18 20:26 34.413978 -118.221766 317 8552ft 157kts
10-May-18 20:27 34.447036 -118.256267 317 8549ft 157kts
10-May-18 20:28 34.480070 -118.290803 317 8542ft 156kts
10-May-18 20:29 34.507272 -118.330762 302 8530ft 154kts
10-May-18 20:30 34.535297 -118.370167 309 8528ft 154kts
10-May-18 20:31 34.563403 -118.409194 309 8530ft 153kts
10-May-18 20:32 34.591409 -118.448174 309 8536ft 154kts
10-May-18 20:33 34.619375 -118.487830 308 8538ft 154kts
10-May-18 20:34 34.647424 -118.527217 309 8534ft 154kts
10-May-18 20:35 34.674181 -118.567295 286 8519ft 153kts
10-May-18 20:36 34.690636 -118.614684 294 8530ft 152kts
10-May-18 20:37 34.709615 -118.659363 295 8543ft 152kts
10-May-18 20:38 34.729580 -118.703823 297 8566ft 152kts
10-May-18 20:39 34.750512 -118.748784 297 8588ft 153kts
10-May-18 20:40 34.771709 -118.793732 298 8607ft 153kts
10-May-18 20:41 34.793240 -118.839178 298 8593ft 155kts
10-May-18 20:42 34.799972 -118.889069 264 8568ft 157kts
10-May-18 20:43 34.801674 -118.940424 311 8541ft 157kts
10-May-18 20:44 34.833658 -118.976748 315 8522ft 158kts
10-May-18 20:45 34.863295 -119.016073 303 8504ft 157kts
10-May-18 20:46 34.883865 -119.063209 294 8489ft 158kts
10-May-18 20:47 34.899983 -119.113134 291 8489ft 158kts
10-May-18 20:48 34.914304 -119.163983 290 8489ft 158kts
10-May-18 20:49 34.927964 -119.215321 289 8489ft 159kts
10-May-18 20:50 34.941265 -119.266486 289 8489ft 159kts
10-May-18 20:51 34.954607 -119.318260 289 8486ft 159kts
10-May-18 20:52 34.967638 -119.369414 288 8415ft 162kts
10-May-18 20:53 34.981472 -119.423765 288 7912ft 168kts
10-May-18 20:54 34.995235 -119.477908 288 7401ft 167kts
10-May-18 20:55 35.008964 -119.531961 288 6889ft 167kts
10-May-18 20:56 35.022603 -119.585769 288 6499ft 160kts
10-May-18 20:57 35.035355 -119.636071 288 6513ft 154kts
10-May-18 20:58 35.047987 -119.686657 287 6326ft 162kts
10-May-18 20:59 35.061190 -119.739361 286 5830ft 162kts
10-May-18 21:00 35.074356 -119.791821 285 5335ft 162kts
10-May-18 21:01 35.087579 -119.844428 286 4839ft 161kts
10-May-18 21:02 35.098877 -119.896203 282 4547ft 151kts
10-May-18 21:03 35.107281 -119.941098 282 4425ft 150kts
10-May-18 21:04 35.116739 -119.991440 282 4130ft 152kts
10-May-18 21:05 35.126138 -120.041532 282 3833ft 151kts
10-May-18 21:06 35.135484 -120.091277 283 3712ft 148kts
10-May-18 21:07 35.143159 -120.132202 282 3740ft 153kts
10-May-18 21:08 35.151571 -120.177366 283 3659ft 162kts
10-May-18 21:09 35.155837 -120.200338 283 3634ft 157kts
10-May-18 21:10 35.165464 -120.252060 283 3411ft 165kts
10-May-18 21:11 35.175172 -120.304548 283 2191ft 156kts
10-May-18 21:12 35.182906 -120.346617 282 2231ft 110kts
10-May-18 21:13 35.190866 -120.389537 283 2489ft 137kts
10-May-18 21:14 35.199846 -120.438213 283 2500ft 151kts
10-May-18 21:15 35.209064 -120.488404 283 2499ft 152kts
10-May-18 21:16 35.218066 -120.537664 283 2490ft 133kts
10-May-18 21:17 35.223878 -120.577025 273 1844ft 110kts
10-May-18 21:18 35.224657 -120.611811 267 1033ft 96kts
10-May-18 21:19 35.234767 -120.636450 303 209ft 63kts
10-May-18 21:20 35.237692 -120.642955 240 184ft 0kts
10-May-18 21:21 35.237675 -120.642990 239 183ft 4kts
10-May-18 21:22 35.237645 -120.647035 347 167ft 6kts
10-May-18 21:23 35.237913 -120.647267 273 166ft 0kts
10-May-18 21:24 35.237913 -120.647267 273 166ft 0kts

Navigation Log

Ident Type
Flight plan parsing failed, navigation log unavailable